Dog Valley, California Weather observations

Data are for 10 minute period ending at time listed.
 Day   Time    Ave.   Ave.  Ave.  Vector   Max.   Total    Solar   
  of    of     Air    Rel.  Wind   Wind    Wind  Precip.   Rad.    
Year   Day     Temp.  Hum.  Speed  Dir.    Gust                    
2014   (PST)    F      %     mph   deg.    mph     in.     W/m2    
------------------------------------------------------------------- 
 210    4:00   62.0    44    0.0    34      4.0    1.36       0  
 210    5:00   61.0    46    0.0   339      3.0    1.36       0  
 210    6:00   63.0    39    0.0   212      3.0    1.36       9  
 210    7:00   67.0    36    1.0    73      8.0    1.36      83  
 210    8:00   75.0    26    0.0   220      5.0    1.36     197  
 210    9:00   83.0    20    4.0   278     16.0    1.36     481  
 210   10:00   85.0    19    3.0   319     13.0    1.36     647  
 210   11:00   83.0    18    3.0   325     11.0    1.36     555  
 210   12:00   87.0    16    3.0   325     11.0    1.36     644  
 210   13:00   86.0    17    4.0   307     12.0    1.36     607  
 210   14:00   85.0    17    3.0   309     13.0    1.36     601  
 210   15:00   83.0    19    1.0    97     10.0    1.36     248  
 210   16:00   82.0    19    3.0    20      8.0    1.36     224  
 210   17:00   82.0    20    0.0   136      7.0    1.36     206  
 210   18:00   78.0    24    1.0   287      7.0    1.36      67  
 210   19:00   77.0    25    2.0   282      6.0    1.36      20  
 210   20:00   72.0    34    1.0   297      9.0    1.36       3  
 210   21:00   70.0    38    0.0   112      8.0    1.36       0  
 210   22:00   66.0    50    0.0   248      5.0    1.36       0  
 210   23:00   60.0    50    0.0   265      4.0    1.36       0  
 211    0:00   58.0    52    1.0   298      3.0    1.36       0  
 211    1:00   55.0    55    0.0   274      2.0    1.36       0  
 211    2:00   54.0    57    0.0    12      3.0    1.36       0  
 211    3:00   53.0    57    0.0   327      2.0    1.36       0  

Return to Dog Valley, California graphs page.


Western Regional Climate Center,wrcc@dri.edu